createdAt,value
2022-10-17T00:00:43.423Z,1.17
2022-10-17T00:03:11.431Z,1.40
2022-10-17T00:05:40.627Z,1.57
2022-10-17T00:08:08.128Z,1.33
2022-10-17T00:10:35.651Z,1.40
2022-10-17T00:13:03.150Z,1.88
2022-10-17T00:15:30.713Z,1.20
2022-10-17T00:17:59.626Z,1.50
2022-10-17T00:20:27.379Z,1.40
2022-10-17T00:22:54.881Z,1.40
2022-10-17T00:25:22.364Z,1.20
2022-10-17T00:27:49.865Z,1.73
2022-10-17T00:30:17.777Z,1.30
2022-10-17T00:32:45.275Z,1.70
2022-10-17T00:35:14.138Z,1.67
2022-10-17T00:37:41.681Z,1.40
2022-10-17T00:40:09.889Z,1.50
2022-10-17T00:42:37.372Z,1.40
2022-10-17T00:45:08.178Z,1.88
2022-10-17T00:47:36.537Z,1.38
2022-10-17T00:50:05.334Z,1.52
2022-10-17T00:52:34.639Z,1.80
2022-10-17T00:55:03.453Z,1.53
2022-10-17T00:57:32.684Z,1.35
2022-10-17T01:00:01.361Z,1.40
2022-10-17T01:02:29.083Z,1.30
2022-10-17T01:04:59.357Z,1.30
2022-10-17T01:07:27.499Z,1.47
2022-10-17T01:09:56.700Z,1.40
2022-10-17T01:12:26.254Z,1.30
2022-10-17T01:15:06.983Z,1.20
2022-10-17T01:17:37.088Z,1.10
2022-10-17T01:20:27.403Z,1.40
2022-10-17T01:23:00.194Z,1.55
2022-10-17T01:25:33.232Z,1.50
2022-10-17T01:28:06.888Z,1.70
2022-10-17T01:30:46.577Z,1.20
2022-10-17T01:33:16.338Z,1.20
2022-10-17T01:35:49.236Z,1.38
2022-10-17T01:38:20.207Z,1.50
2022-10-17T01:40:50.283Z,1.77
2022-10-17T01:43:19.480Z,1.77
2022-10-17T01:45:51.122Z,1.60
2022-10-17T01:48:20.189Z,1.70
2022-10-17T01:50:49.576Z,1.92
2022-10-17T01:53:19.470Z,1.30
2022-10-17T01:55:48.102Z,1.67
2022-10-17T01:58:19.073Z,1.83
2022-10-17T02:00:49.473Z,1.67
2022-10-17T02:03:18.677Z,1.77
2022-10-17T02:05:46.541Z,1.50
2022-10-17T02:08:14.677Z,1.80
2022-10-17T02:10:46.921Z,1.70
2022-10-17T02:13:20.403Z,1.58
2022-10-17T02:15:55.835Z,1.33
2022-10-17T02:18:30.323Z,1.63
2022-10-17T02:21:00.235Z,1.92
2022-10-17T02:23:31.467Z,1.67
2022-10-17T02:26:03.100Z,1.52
2022-10-17T02:28:32.696Z,1.70
2022-10-17T02:31:03.723Z,1.60
2022-10-17T02:33:33.703Z,1.42
2022-10-17T02:36:02.948Z,1.47
2022-10-17T02:38:31.612Z,1.35
2022-10-17T02:40:59.249Z,1.75
2022-10-17T02:43:26.952Z,1.65
2022-10-17T02:45:54.956Z,1.88
2022-10-17T02:48:26.850Z,1.63
2022-10-17T02:51:02.389Z,1.70
2022-10-17T02:53:32.930Z,1.67
2022-10-17T02:56:03.876Z,1.45
2022-10-17T02:58:32.811Z,1.77
2022-10-17T03:01:00.518Z,1.67
2022-10-17T03:03:30.431Z,1.27
2022-10-17T03:05:57.936Z,1.50
2022-10-17T03:08:25.633Z,1.67
2022-10-17T03:10:53.120Z,1.80
2022-10-17T03:13:20.688Z,1.70
2022-10-17T03:15:48.215Z,1.95
2022-10-17T03:18:15.701Z,1.33
2022-10-17T03:20:44.544Z,1.88
2022-10-17T03:23:12.016Z,1.30
2022-10-17T03:25:39.517Z,1.17
2022-10-17T03:28:07.079Z,1.92
2022-10-17T03:30:34.536Z,1.90
2022-10-17T03:33:02.057Z,1.50
2022-10-17T03:35:29.530Z,2.10
2022-10-17T03:37:58.391Z,1.70
2022-10-17T03:40:25.921Z,1.60
2022-10-17T03:42:53.398Z,1.50
2022-10-17T03:45:20.874Z,1.80
2022-10-17T03:47:48.368Z,2.40
2022-10-17T03:50:15.975Z,1.70
2022-10-17T03:52:43.445Z,1.77
2022-10-17T03:55:12.268Z,1.50
2022-10-17T03:57:42.146Z,1.70
2022-10-17T04:00:12.816Z,1.95
2022-10-17T04:02:40.345Z,1.60
2022-10-17T04:05:08.624Z,1.60
2022-10-17T04:07:37.254Z,2.00
2022-10-17T04:10:05.330Z,1.75
2022-10-17T04:12:34.188Z,1.55
2022-10-17T04:15:01.672Z,2.10
2022-10-17T04:17:35.766Z,1.73
2022-10-17T04:20:05.865Z,1.55
2022-10-17T04:22:33.396Z,1.48
2022-10-17T04:25:00.866Z,1.80
2022-10-17T04:27:28.507Z,1.77
2022-10-17T04:29:57.339Z,2.00
2022-10-17T04:32:25.834Z,1.95
2022-10-17T04:34:53.353Z,2.00
2022-10-17T04:37:20.822Z,1.90
2022-10-17T04:39:48.310Z,1.90
2022-10-17T04:42:15.818Z,1.45
2022-10-17T04:44:43.294Z,1.70
2022-10-17T04:47:12.180Z,1.65
2022-10-17T04:52:12.066Z,1.70
2022-10-17T04:54:39.578Z,1.50
2022-10-17T04:57:07.064Z,1.70
2022-10-17T04:59:34.563Z,1.38
2022-10-17T05:02:02.037Z,2.08
2022-10-17T05:04:30.905Z,1.90
2022-10-17T05:06:58.359Z,1.80
2022-10-17T05:09:25.867Z,1.63
2022-10-17T05:11:53.385Z,1.80
2022-10-17T05:14:20.880Z,1.75
2022-10-17T05:16:48.429Z,1.77
2022-10-17T05:19:16.000Z,1.60
2022-10-17T05:21:44.983Z,1.50
2022-10-17T05:24:14.575Z,1.70
2022-10-17T05:26:42.114Z,2.10
2022-10-17T05:29:10.403Z,1.60
2022-10-17T05:31:38.003Z,1.50
2022-10-17T05:34:07.971Z,1.92
2022-10-17T05:36:37.805Z,1.95
2022-10-17T05:39:07.124Z,1.83
2022-10-17T05:41:34.702Z,1.83
2022-10-17T05:44:04.761Z,1.60
2022-10-17T05:46:33.236Z,1.60
2022-10-17T05:49:00.788Z,1.60
2022-10-17T05:51:28.537Z,1.70
2022-10-17T05:53:56.090Z,1.70
2022-10-17T05:56:25.013Z,1.80
2022-10-17T05:58:55.186Z,1.98
2022-10-17T06:01:25.463Z,2.05
2022-10-17T06:03:52.995Z,1.90
2022-10-17T06:06:20.534Z,1.87
2022-10-17T06:08:48.009Z,2.15
2022-10-17T06:11:15.509Z,2.10
2022-10-17T06:13:44.351Z,1.60
2022-10-17T06:16:11.848Z,2.10
2022-10-17T06:18:39.405Z,1.67
2022-10-17T06:21:08.553Z,1.70
2022-10-17T06:23:36.146Z,1.83
2022-10-17T06:26:04.607Z,1.95
2022-10-17T06:28:32.127Z,1.40
2022-10-17T06:31:01.121Z,2.00
2022-10-17T06:33:28.584Z,1.52
2022-10-17T06:35:56.520Z,2.03
2022-10-17T06:38:24.003Z,1.90
2022-10-17T06:40:51.566Z,1.88
2022-10-17T06:43:19.028Z,1.80
2022-10-17T06:45:47.419Z,2.00
2022-10-17T06:48:16.372Z,1.80
2022-10-17T06:50:43.890Z,2.00
2022-10-17T06:53:11.480Z,2.00
2022-10-17T06:55:38.986Z,1.90
2022-10-17T06:58:06.486Z,2.03
2022-10-17T07:00:33.993Z,1.90
2022-10-17T07:03:01.623Z,1.90
2022-10-17T07:05:30.508Z,1.70
2022-10-17T07:07:57.995Z,2.10
2022-10-17T07:10:25.493Z,2.10
2022-10-17T07:12:53.066Z,2.10
2022-10-17T07:15:20.565Z,1.75
2022-10-17T07:17:49.447Z,2.05
2022-10-17T07:20:16.990Z,1.70
2022-10-17T07:22:45.841Z,1.70
2022-10-17T07:25:13.358Z,1.85
2022-10-17T07:27:40.865Z,1.88
2022-10-17T07:30:09.238Z,1.92
2022-10-17T07:32:36.755Z,2.10
2022-10-17T07:35:04.575Z,2.00
2022-10-17T07:37:32.505Z,2.10
2022-10-17T07:40:01.742Z,2.00
2022-10-17T07:42:29.430Z,2.05
2022-10-17T07:44:56.944Z,2.20
2022-10-17T07:47:24.456Z,2.00
2022-10-17T07:49:51.992Z,1.85
2022-10-17T07:52:19.537Z,1.80
2022-10-17T07:54:47.255Z,1.90
2022-10-17T07:57:16.169Z,2.00
2022-10-17T07:59:43.699Z,2.17
2022-10-17T08:02:15.247Z,2.10
2022-10-17T08:04:42.737Z,1.90
2022-10-17T08:07:20.635Z,2.00
2022-10-17T08:09:50.806Z,2.10
2022-10-17T08:12:19.799Z,2.30
2022-10-17T08:14:48.170Z,2.00
2022-10-17T08:17:15.719Z,2.45
2022-10-17T08:19:43.218Z,2.30
2022-10-17T08:22:10.735Z,2.00
2022-10-17T08:24:38.209Z,2.30
2022-10-17T08:27:11.393Z,2.13
2022-10-17T08:29:40.490Z,2.10
2022-10-17T08:32:09.970Z,2.10
2022-10-17T08:34:37.765Z,1.90
2022-10-17T08:37:05.343Z,2.25
2022-10-17T08:39:32.897Z,2.10
2022-10-17T08:42:04.848Z,2.10
2022-10-17T08:44:38.308Z,2.30
2022-10-17T08:47:10.821Z,2.23
2022-10-17T08:49:40.525Z,2.20
2022-10-17T08:52:11.715Z,2.10
2022-10-17T08:54:41.650Z,2.33
2022-10-17T08:57:12.102Z,2.42
2022-10-17T08:59:39.963Z,2.50
2022-10-17T09:02:17.253Z,2.30
2022-10-17T09:04:57.419Z,2.40
2022-10-17T09:07:29.130Z,2.28
2022-10-17T09:10:01.031Z,2.25
2022-10-17T09:12:34.048Z,2.70
2022-10-17T09:15:07.578Z,2.75
2022-10-17T09:17:39.625Z,2.80
2022-10-17T09:20:11.050Z,2.58
2022-10-17T09:22:41.297Z,2.38
2022-10-17T09:25:12.150Z,2.40
2022-10-17T09:27:42.459Z,2.83
2022-10-17T09:30:40.130Z,2.88
2022-10-17T09:33:23.155Z,35.13
2022-10-17T09:50:02.593Z,2.90
2022-10-17T09:52:31.748Z,3.00
2022-10-17T09:55:00.988Z,2.70
2022-10-17T09:57:28.983Z,2.95
2022-10-17T10:00:00.516Z,2.85
2022-10-17T10:02:29.207Z,3.10
2022-10-17T10:05:06.939Z,3.30
2022-10-17T10:07:36.501Z,3.40
2022-10-17T10:10:05.823Z,3.70
2022-10-17T10:12:34.600Z,3.50
2022-10-17T10:15:02.133Z,3.30
2022-10-17T10:17:34.578Z,3.92
2022-10-17T10:20:02.432Z,3.70
2022-10-17T10:22:31.851Z,3.20
2022-10-17T10:25:10.035Z,3.70
2022-10-17T10:27:38.406Z,3.70
2022-10-17T10:30:06.476Z,3.28
2022-10-17T10:32:34.937Z,3.57
2022-10-17T10:35:04.315Z,3.97
2022-10-17T10:37:35.741Z,3.60
2022-10-17T10:40:04.329Z,3.47
2022-10-17T10:42:32.634Z,3.58
2022-10-17T10:45:03.286Z,3.63
2022-10-17T10:47:31.522Z,3.58
2022-10-17T10:50:10.456Z,3.70
2022-10-17T10:52:43.218Z,3.20
2022-10-17T10:55:22.409Z,3.97
2022-10-17T10:57:51.422Z,3.80
2022-10-17T11:00:20.745Z,3.90
2022-10-17T11:02:53.910Z,3.78
2022-10-17T11:05:24.638Z,3.60
2022-10-17T11:07:56.134Z,3.85
2022-10-17T11:10:26.411Z,3.97
2022-10-17T11:12:58.737Z,4.10
2022-10-17T11:15:28.991Z,3.92
2022-10-17T11:17:59.664Z,4.15
2022-10-17T11:20:30.911Z,4.22
2022-10-17T11:23:03.053Z,3.90
2022-10-17T11:25:33.512Z,4.47
2022-10-17T11:28:04.913Z,4.03
2022-10-17T11:30:38.007Z,4.30
2022-10-17T11:33:06.214Z,4.55
2022-10-17T11:35:35.681Z,4.60
2022-10-17T11:38:07.635Z,4.07
2022-10-17T11:40:36.974Z,4.78
2022-10-17T11:43:06.322Z,4.63
2022-10-17T11:45:36.459Z,4.35
2022-10-17T11:48:07.328Z,5.07
2022-10-17T11:53:26.108Z,4.40
2022-10-17T11:55:53.881Z,5.18
2022-10-17T12:01:07.953Z,5.97
2022-10-17T12:03:46.686Z,5.45
2022-10-17T12:06:16.407Z,5.72
2022-10-17T12:08:47.187Z,6.03
2022-10-17T12:11:17.533Z,6.50
2022-10-17T12:13:52.729Z,6.17
2022-10-17T12:16:40.281Z,6.47
2022-10-17T12:19:21.382Z,6.25
2022-10-17T12:21:58.969Z,6.80
2022-10-17T12:24:32.858Z,6.93
2022-10-17T12:27:22.199Z,7.03
2022-10-17T12:29:50.509Z,6.70
2022-10-17T12:32:18.032Z,7.25
2022-10-17T12:34:52.486Z,7.28
2022-10-17T12:37:34.839Z,7.82
2022-10-17T12:40:03.769Z,8.60
2022-10-17T12:42:32.792Z,9.27
2022-10-17T12:45:00.353Z,9.45
2022-10-17T12:47:38.654Z,9.65
2022-10-17T12:50:21.681Z,9.43
2022-10-17T12:52:57.982Z,9.30
2022-10-17T12:55:27.503Z,11.05
2022-10-17T12:57:56.749Z,9.50
2022-10-17T13:00:28.067Z,9.95
2022-10-17T13:02:57.129Z,10.60
2022-10-17T13:05:29.418Z,10.23
2022-10-17T13:07:57.618Z,10.05
2022-10-17T13:13:01.697Z,11.05
2022-10-17T13:15:29.256Z,9.90
2022-10-17T13:17:57.813Z,9.90
2022-10-17T13:20:30.613Z,10.63
2022-10-17T13:22:59.727Z,12.20
2022-10-17T13:25:27.829Z,9.98
2022-10-17T13:28:07.552Z,8.73
2022-10-17T13:30:35.956Z,8.67
2022-10-17T13:33:03.993Z,8.27
2022-10-17T13:38:23.751Z,7.78
2022-10-17T13:40:51.399Z,9.02
2022-10-17T13:43:24.148Z,8.50
2022-10-17T13:45:52.961Z,8.52
2022-10-17T13:48:21.384Z,8.00
2022-10-17T13:50:50.210Z,8.48
2022-10-17T13:53:20.122Z,8.10
2022-10-17T13:56:09.367Z,7.37
2022-10-17T13:58:44.520Z,7.60
2022-10-17T14:01:12.999Z,7.90
2022-10-17T14:03:48.734Z,7.65
2022-10-17T14:06:18.863Z,7.75
2022-10-17T14:08:51.879Z,7.60
2022-10-17T14:11:23.896Z,7.95
2022-10-17T14:13:53.767Z,8.30
2022-10-17T14:16:22.029Z,8.57
2022-10-17T14:18:50.645Z,8.38
2022-10-17T14:21:40.952Z,7.97
2022-10-17T14:24:13.968Z,8.07
2022-10-17T14:26:48.114Z,7.80
2022-10-17T14:29:21.931Z,7.28
2022-10-17T14:31:50.676Z,6.68
2022-10-17T14:34:21.654Z,6.37
2022-10-17T14:36:51.794Z,6.40
2022-10-17T14:39:21.217Z,6.85
2022-10-17T14:41:49.000Z,5.82
2022-10-17T14:44:25.209Z,5.20
2022-10-17T14:46:54.942Z,5.50
2022-10-17T14:49:25.570Z,5.00
2022-10-17T14:52:15.083Z,4.60
2022-10-17T14:54:46.407Z,5.28
2022-10-17T14:57:16.310Z,5.38
2022-10-17T14:59:54.257Z,5.00
2022-10-17T15:02:22.864Z,5.07
2022-10-17T15:04:50.383Z,5.70
2022-10-17T15:07:18.431Z,5.13
2022-10-17T15:09:46.434Z,5.20
2022-10-17T15:12:15.319Z,5.10
2022-10-17T15:14:43.293Z,4.60
2022-10-17T15:17:15.347Z,4.70
2022-10-17T15:19:42.989Z,5.00
2022-10-17T15:22:10.547Z,5.00
2022-10-17T15:24:38.108Z,4.60
2022-10-17T15:27:07.828Z,4.88
2022-10-17T15:29:35.334Z,4.65
2022-10-17T15:32:02.813Z,4.75
2022-10-17T15:34:31.653Z,4.60
2022-10-17T15:36:59.192Z,4.90
2022-10-17T15:39:26.716Z,4.45
2022-10-17T15:41:54.210Z,5.00
2022-10-17T15:44:21.680Z,4.70
2022-10-17T15:46:49.187Z,4.85
2022-10-17T15:49:19.718Z,4.50
2022-10-17T15:51:51.736Z,4.00
2022-10-17T15:54:22.835Z,4.70
2022-10-17T15:56:53.339Z,4.57
2022-10-17T15:59:22.427Z,4.53
2022-10-17T16:01:49.935Z,4.43
2022-10-17T16:04:18.554Z,4.15
2022-10-17T16:06:46.130Z,4.32
2022-10-17T16:09:14.988Z,4.28
2022-10-17T16:11:43.384Z,4.70
2022-10-17T16:14:11.916Z,4.10
2022-10-17T16:16:39.468Z,4.63
2022-10-17T16:19:07.457Z,5.10
2022-10-17T16:21:35.831Z,5.70
2022-10-17T16:24:03.396Z,5.13
2022-10-17T16:26:32.356Z,4.80
2022-10-17T16:29:02.871Z,4.85
2022-10-17T16:31:31.722Z,5.47
2022-10-17T16:34:00.094Z,5.38
2022-10-17T16:36:27.685Z,5.45
2022-10-17T16:38:55.290Z,6.03
2022-10-17T16:41:24.281Z,5.60
2022-10-17T16:43:55.535Z,5.70
2022-10-17T16:46:23.543Z,5.57
2022-10-17T16:48:51.498Z,5.85
2022-10-17T16:51:20.050Z,6.30
2022-10-17T16:53:50.009Z,5.93
2022-10-17T16:56:18.587Z,5.75
2022-10-17T16:58:46.534Z,5.65
2022-10-17T17:01:16.395Z,6.07
2022-10-17T17:03:44.600Z,6.03
2022-10-17T17:06:14.065Z,5.85
2022-10-17T17:08:42.636Z,6.13
2022-10-17T17:11:10.243Z,6.18
2022-10-17T17:13:37.948Z,6.30
2022-10-17T17:16:06.929Z,5.90
2022-10-17T17:18:35.776Z,5.65
2022-10-17T17:21:04.223Z,5.68
2022-10-17T17:23:32.040Z,6.15
2022-10-17T17:25:59.888Z,6.10
2022-10-17T17:28:27.958Z,5.93
2022-10-17T17:30:55.839Z,6.60
2022-10-17T17:33:23.510Z,6.20
2022-10-17T17:35:56.655Z,6.53
2022-10-17T17:38:24.304Z,5.93
2022-10-17T17:40:52.236Z,5.57
2022-10-17T17:43:19.728Z,5.70
2022-10-17T17:45:47.432Z,7.28
2022-10-17T17:48:15.137Z,5.82
2022-10-17T17:50:43.309Z,5.88
2022-10-17T17:53:13.320Z,6.30
2022-10-17T17:55:40.991Z,6.10
2022-10-17T17:58:09.192Z,6.07
2022-10-17T18:00:37.074Z,5.57
2022-10-17T18:03:04.901Z,5.50
2022-10-17T18:05:46.455Z,5.40
2022-10-17T18:08:17.838Z,5.15
2022-10-17T18:10:49.440Z,5.25
2022-10-17T18:13:20.498Z,4.95
2022-10-17T18:15:52.018Z,5.68
2022-10-17T18:18:20.215Z,4.90
2022-10-17T18:20:52.529Z,5.50
2022-10-17T18:23:21.628Z,4.97
2022-10-17T18:25:55.456Z,4.82
2022-10-17T18:28:23.072Z,4.90
2022-10-17T18:30:51.042Z,4.73
2022-10-17T18:33:18.543Z,5.07
2022-10-17T18:35:46.077Z,4.93
2022-10-17T18:38:13.554Z,5.30
2022-10-17T18:40:45.009Z,5.15
2022-10-17T18:43:14.811Z,5.30
2022-10-17T18:45:42.336Z,5.22
2022-10-17T18:48:09.974Z,4.72
2022-10-17T18:50:39.748Z,5.28
2022-10-17T18:53:07.225Z,4.93
2022-10-17T18:55:34.784Z,5.37
2022-10-17T18:58:03.771Z,4.75
2022-10-17T19:00:31.396Z,4.80
2022-10-17T19:02:58.897Z,4.80
2022-10-17T19:05:26.493Z,4.47
2022-10-17T19:07:53.973Z,5.00
2022-10-17T19:10:21.692Z,4.13
2022-10-17T19:12:49.217Z,4.97
2022-10-17T19:15:19.447Z,4.38
2022-10-17T19:17:48.796Z,4.68
2022-10-17T19:20:16.290Z,4.43
2022-10-17T19:22:43.832Z,4.10
2022-10-17T19:25:11.361Z,4.97
2022-10-17T19:27:39.015Z,4.18
2022-10-17T19:30:07.041Z,4.50
2022-10-17T19:32:36.651Z,3.90
2022-10-17T19:35:04.616Z,4.53
2022-10-17T19:37:32.601Z,4.22
2022-10-17T19:40:00.241Z,4.07
2022-10-17T19:42:27.964Z,4.45
2022-10-17T19:44:55.597Z,4.17
2022-10-17T19:47:23.106Z,4.32
2022-10-17T19:49:52.166Z,4.90
2022-10-17T19:52:19.736Z,4.95
2022-10-17T19:54:47.224Z,5.07
2022-10-17T19:57:14.757Z,5.90
2022-10-17T19:59:42.289Z,4.82
2022-10-17T20:02:11.583Z,5.10
2022-10-17T20:04:49.562Z,4.95
2022-10-17T20:07:28.149Z,5.20
2022-10-17T20:09:55.681Z,5.60
2022-10-17T20:12:23.166Z,5.35
2022-10-17T20:14:50.658Z,5.35
2022-10-17T20:17:18.128Z,4.88
2022-10-17T20:19:45.778Z,5.15
2022-10-17T20:22:13.260Z,4.90
2022-10-17T20:24:42.152Z,5.68
2022-10-17T20:27:09.926Z,5.55
2022-10-17T20:29:37.394Z,5.60
2022-10-17T20:32:05.159Z,5.88
2022-10-17T20:34:35.389Z,5.90
2022-10-17T20:37:03.005Z,5.22
2022-10-17T20:39:30.652Z,4.50
2022-10-17T20:41:59.573Z,4.50
2022-10-17T20:44:27.039Z,4.40
2022-10-17T20:47:01.899Z,3.90
2022-10-17T20:49:30.403Z,3.97
2022-10-17T20:51:58.098Z,3.67
2022-10-17T20:54:25.620Z,3.88
2022-10-17T20:56:53.126Z,3.75
2022-10-17T20:59:22.022Z,4.03
2022-10-17T21:01:49.545Z,3.33
2022-10-17T21:07:04.621Z,4.07
2022-10-17T21:09:32.135Z,4.40
2022-10-17T21:14:36.363Z,4.80
2022-10-17T21:17:05.215Z,4.57
2022-10-17T21:19:33.156Z,4.18
2022-10-17T21:22:00.641Z,4.38
2022-10-17T21:24:28.191Z,3.87
2022-10-17T21:26:57.522Z,3.95
2022-10-17T21:29:25.207Z,4.50
2022-10-17T21:31:54.060Z,5.15
2022-10-17T21:34:22.411Z,5.22
2022-10-17T21:36:49.896Z,5.27
2022-10-17T21:39:17.653Z,4.93
2022-10-17T21:41:45.582Z,5.28
2022-10-17T21:44:14.030Z,5.03
2022-10-17T21:46:41.605Z,4.82
2022-10-17T21:49:11.801Z,4.60
2022-10-17T21:51:39.693Z,4.75
2022-10-17T21:54:07.251Z,4.90
2022-10-17T21:56:36.319Z,4.55
2022-10-17T21:59:04.718Z,5.10
2022-10-17T22:01:34.863Z,4.77
2022-10-17T22:04:03.234Z,5.20
2022-10-17T22:06:39.814Z,6.43
2022-10-17T22:09:09.533Z,6.00
2022-10-17T22:11:37.144Z,5.55
2022-10-17T22:14:07.240Z,4.70
2022-10-17T22:16:35.097Z,4.78
2022-10-17T22:19:06.130Z,5.20
2022-10-17T22:21:36.011Z,4.88
2022-10-17T22:24:05.514Z,5.93
2022-10-17T22:26:33.823Z,5.90
2022-10-17T22:29:01.381Z,4.95
2022-10-17T22:31:28.979Z,4.95
2022-10-17T22:33:56.842Z,4.85
2022-10-17T22:36:24.323Z,4.60
2022-10-17T22:38:53.158Z,4.10
2022-10-17T22:41:20.666Z,4.15
2022-10-17T22:43:48.215Z,4.22
2022-10-17T22:46:16.655Z,4.10
2022-10-17T22:48:44.325Z,3.90
2022-10-17T22:51:11.974Z,4.07
2022-10-17T22:53:39.685Z,3.50
2022-10-17T22:56:10.978Z,3.67
2022-10-17T22:58:38.776Z,3.75
2022-10-17T23:01:07.360Z,3.60
2022-10-17T23:03:35.191Z,3.50
2022-10-17T23:06:02.866Z,3.60
2022-10-17T23:08:30.497Z,3.75
2022-10-17T23:10:58.007Z,3.78
2022-10-17T23:13:26.983Z,3.58
2022-10-17T23:15:55.380Z,3.77
2022-10-17T23:18:23.377Z,3.17
2022-10-17T23:20:51.248Z,3.80
2022-10-17T23:23:19.186Z,3.58
2022-10-17T23:25:46.857Z,3.97
2022-10-17T23:28:14.775Z,3.17
2022-10-17T23:30:43.610Z,3.47
2022-10-17T23:33:12.017Z,3.22
2022-10-17T23:35:39.849Z,2.95
2022-10-17T23:38:07.429Z,3.40
2022-10-17T23:40:35.787Z,4.10
2022-10-17T23:43:03.410Z,3.80
2022-10-17T23:45:35.948Z,3.95
2022-10-17T23:48:06.205Z,3.80
2022-10-17T23:50:33.680Z,3.53
2022-10-17T23:53:01.136Z,3.80
2022-10-17T23:55:28.924Z,4.55
2022-10-17T23:57:56.409Z,3.70
